createdAt,value
2023-03-07T00:01:11.746Z,5.70
2023-03-07T00:03:39.874Z,5.17
2023-03-07T00:06:09.951Z,5.48
2023-03-07T00:08:38.404Z,5.15
2023-03-07T00:11:10.271Z,5.32
2023-03-07T00:13:39.618Z,4.42
2023-03-07T00:16:10.388Z,5.12
2023-03-07T00:18:38.643Z,5.12
2023-03-07T00:21:09.039Z,5.15
2023-03-07T00:23:39.074Z,5.45
2023-03-07T00:26:09.989Z,5.47
2023-03-07T00:28:38.150Z,5.55
2023-03-07T00:31:08.544Z,5.41
2023-03-07T00:33:36.938Z,4.85
2023-03-07T00:36:07.787Z,5.61
2023-03-07T00:38:36.668Z,5.63
2023-03-07T00:41:07.345Z,5.52
2023-03-07T00:43:37.265Z,5.40
2023-03-07T00:46:06.975Z,5.33
2023-03-07T00:48:36.331Z,5.28
2023-03-07T00:51:05.050Z,5.08
2023-03-07T00:53:33.552Z,5.31
2023-03-07T00:56:03.710Z,5.31
2023-03-07T00:58:33.676Z,4.51
2023-03-07T01:01:04.899Z,5.04
2023-03-07T01:03:33.583Z,4.96
2023-03-07T01:06:03.841Z,4.98
2023-03-07T01:08:32.436Z,4.87
2023-03-07T01:11:01.443Z,4.82
2023-03-07T01:13:29.758Z,4.76
2023-03-07T01:16:07.392Z,4.95
2023-03-07T01:18:36.960Z,5.05
2023-03-07T01:21:12.884Z,4.83
2023-03-07T01:23:41.020Z,4.97
2023-03-07T01:26:12.672Z,4.97
2023-03-07T01:28:40.767Z,4.75
2023-03-07T01:31:09.169Z,4.97
2023-03-07T01:33:38.796Z,4.97
2023-03-07T01:36:15.361Z,4.87
2023-03-07T01:38:43.607Z,5.03
2023-03-07T01:41:11.727Z,5.00
2023-03-07T01:43:39.978Z,5.08
2023-03-07T01:46:43.178Z,5.05
2023-03-07T01:49:26.897Z,5.07
2023-03-07T01:52:00.110Z,5.03
2023-03-07T01:54:30.356Z,5.03
2023-03-07T01:56:59.554Z,5.10
2023-03-07T01:59:33.004Z,5.11
2023-03-07T02:02:06.973Z,5.16
2023-03-07T02:04:42.907Z,5.09
2023-03-07T02:07:12.154Z,5.11
2023-03-07T02:09:41.594Z,4.94
2023-03-07T02:12:10.192Z,4.88
2023-03-07T02:14:38.456Z,4.92
2023-03-07T02:17:07.211Z,4.87
2023-03-07T02:19:50.567Z,4.71
2023-03-07T02:22:20.192Z,4.78
2023-03-07T02:24:54.373Z,4.82
2023-03-07T02:27:25.540Z,4.86
2023-03-07T02:29:54.012Z,4.34
2023-03-07T02:32:22.230Z,3.93
2023-03-07T02:34:50.323Z,5.08
2023-03-07T02:37:21.505Z,4.99
2023-03-07T02:39:50.237Z,5.00
2023-03-07T02:42:22.238Z,5.08
2023-03-07T02:44:59.321Z,4.95
2023-03-07T02:47:28.259Z,4.98
2023-03-07T02:49:56.913Z,4.98
2023-03-07T02:52:27.964Z,4.80
2023-03-07T02:54:56.188Z,5.00
2023-03-07T02:57:24.334Z,5.12
2023-03-07T02:59:52.522Z,4.91
2023-03-07T03:02:22.097Z,5.07
2023-03-07T03:04:50.299Z,5.03
2023-03-07T03:07:18.510Z,5.04
2023-03-07T03:09:46.618Z,4.98
2023-03-07T03:12:14.740Z,5.07
2023-03-07T03:14:42.858Z,4.99
2023-03-07T03:17:11.030Z,5.04
2023-03-07T03:19:40.537Z,4.84
2023-03-07T03:22:08.615Z,5.05
2023-03-07T03:24:40.602Z,4.96
2023-03-07T03:27:08.806Z,4.95
2023-03-07T03:29:36.924Z,5.05
2023-03-07T03:32:05.538Z,5.05
2023-03-07T03:34:34.082Z,5.03
2023-03-07T03:37:03.668Z,4.97
2023-03-07T03:39:31.780Z,4.81
2023-03-07T03:41:59.944Z,4.87
2023-03-07T03:44:28.058Z,4.74
2023-03-07T03:46:56.415Z,4.84
2023-03-07T03:49:24.673Z,5.05
2023-03-07T03:51:52.903Z,4.89
2023-03-07T03:54:22.592Z,4.84
2023-03-07T03:56:50.721Z,4.75
2023-03-07T03:59:18.830Z,4.90
2023-03-07T04:01:47.075Z,4.93
2023-03-07T04:04:15.683Z,4.83
2023-03-07T04:06:43.834Z,4.70
2023-03-07T04:09:12.507Z,4.90
2023-03-07T04:11:42.078Z,4.82
2023-03-07T04:14:10.259Z,4.74
2023-03-07T04:16:38.450Z,4.69
2023-03-07T04:19:06.640Z,4.61
2023-03-07T04:21:34.808Z,4.81
2023-03-07T04:24:02.918Z,4.66
2023-03-07T04:26:31.107Z,4.80
2023-03-07T04:29:00.668Z,4.70
2023-03-07T04:31:29.742Z,4.72
2023-03-07T04:33:58.435Z,4.74
2023-03-07T04:36:26.688Z,4.78
2023-03-07T04:38:54.902Z,4.88
2023-03-07T04:41:26.296Z,4.79
2023-03-07T04:43:54.446Z,4.08
2023-03-07T04:46:24.051Z,4.69
2023-03-07T04:48:52.226Z,4.69
2023-03-07T04:51:20.376Z,4.68
2023-03-07T04:53:48.641Z,4.58
2023-03-07T04:56:16.877Z,4.74
2023-03-07T04:58:45.691Z,4.75
2023-03-07T05:01:14.362Z,4.87
2023-03-07T05:03:44.422Z,4.87
2023-03-07T05:06:15.999Z,4.69
2023-03-07T05:08:44.158Z,4.66
2023-03-07T05:11:12.278Z,4.39
2023-03-07T05:13:40.525Z,4.50
2023-03-07T05:16:09.350Z,4.59
2023-03-07T05:18:37.549Z,4.58
2023-03-07T05:21:07.264Z,4.61
2023-03-07T05:23:35.382Z,4.71
2023-03-07T05:26:03.544Z,4.60
2023-03-07T05:28:31.773Z,4.58
2023-03-07T05:30:59.981Z,4.53
2023-03-07T05:33:28.139Z,4.63
2023-03-07T05:35:56.608Z,4.55
2023-03-07T05:38:26.150Z,4.45
2023-03-07T05:40:54.307Z,4.53
2023-03-07T05:43:22.390Z,4.53
2023-03-07T05:45:50.564Z,4.46
2023-03-07T05:48:18.768Z,4.38
2023-03-07T05:50:47.023Z,4.45
2023-03-07T05:53:15.208Z,4.49
2023-03-07T05:55:45.370Z,4.42
2023-03-07T05:58:13.606Z,4.59
2023-03-07T06:00:41.981Z,4.31
2023-03-07T06:03:10.195Z,4.57
2023-03-07T06:05:39.308Z,4.62
2023-03-07T06:08:08.000Z,4.55
2023-03-07T06:10:37.475Z,4.61
2023-03-07T06:13:07.138Z,4.60
2023-03-07T06:15:35.345Z,4.57
2023-03-07T06:18:03.504Z,4.57
2023-03-07T06:20:31.868Z,4.56
2023-03-07T06:23:01.431Z,4.39
2023-03-07T06:25:29.595Z,4.53
2023-03-07T06:28:01.034Z,4.27
2023-03-07T06:30:30.778Z,4.18
2023-03-07T06:32:58.920Z,3.53
2023-03-07T06:35:27.279Z,4.49
2023-03-07T06:37:55.424Z,4.35
2023-03-07T06:40:23.609Z,4.41
2023-03-07T06:42:53.824Z,4.55
2023-03-07T06:45:22.017Z,4.43
2023-03-07T06:47:51.612Z,4.47
2023-03-07T06:50:29.882Z,4.63
2023-03-07T06:53:02.637Z,4.60
2023-03-07T06:55:30.876Z,4.70
2023-03-07T06:57:59.063Z,4.41
2023-03-07T07:00:27.393Z,4.75
2023-03-07T07:02:57.123Z,4.75
2023-03-07T07:05:25.315Z,4.76
2023-03-07T07:07:53.505Z,4.59
2023-03-07T07:10:21.584Z,4.68
2023-03-07T07:12:49.750Z,4.70
2023-03-07T07:15:18.074Z,4.72
2023-03-07T07:17:46.194Z,4.11
2023-03-07T07:20:16.195Z,4.78
2023-03-07T07:22:44.294Z,3.27
2023-03-07T07:25:13.004Z,4.66
2023-03-07T07:27:41.274Z,4.65
2023-03-07T07:30:10.528Z,4.63
2023-03-07T07:32:38.891Z,4.64
2023-03-07T07:35:08.287Z,4.64
2023-03-07T07:37:37.799Z,4.53
2023-03-07T07:40:06.842Z,4.59
2023-03-07T07:42:34.989Z,4.70
2023-03-07T07:45:03.197Z,4.71
2023-03-07T07:47:31.322Z,4.59
2023-03-07T07:49:59.493Z,4.63
2023-03-07T07:52:27.604Z,4.66
2023-03-07T07:54:57.205Z,4.63
2023-03-07T07:57:25.499Z,4.62
2023-03-07T07:59:53.598Z,4.69
2023-03-07T08:02:21.955Z,4.74
2023-03-07T08:04:50.149Z,4.68
2023-03-07T08:07:18.335Z,3.90
2023-03-07T08:09:46.464Z,4.72
2023-03-07T08:12:15.992Z,4.73
2023-03-07T08:14:44.100Z,4.52
2023-03-07T08:17:12.187Z,4.78
2023-03-07T08:19:40.336Z,4.77
2023-03-07T08:22:08.501Z,4.83
2023-03-07T08:24:40.892Z,4.85
2023-03-07T08:27:09.415Z,4.88
2023-03-07T08:29:38.985Z,4.81
2023-03-07T08:32:07.851Z,4.82
2023-03-07T08:34:36.022Z,4.82
2023-03-07T08:37:04.120Z,4.85
2023-03-07T08:39:32.260Z,4.77
2023-03-07T08:42:00.996Z,4.82
2023-03-07T08:44:29.259Z,4.75
2023-03-07T08:46:58.861Z,4.80
2023-03-07T08:49:27.146Z,4.86
2023-03-07T08:51:55.183Z,4.61
2023-03-07T08:54:23.364Z,4.82
2023-03-07T08:56:51.457Z,4.76
2023-03-07T08:59:19.632Z,4.57
2023-03-07T09:01:47.808Z,4.69
2023-03-07T09:04:17.434Z,4.70
2023-03-07T09:06:45.543Z,4.59
2023-03-07T09:09:13.698Z,4.59
2023-03-07T09:11:42.019Z,4.53
2023-03-07T09:14:10.259Z,4.77
2023-03-07T09:16:38.430Z,4.78
2023-03-07T09:19:06.889Z,4.74
2023-03-07T09:21:36.628Z,4.28
2023-03-07T09:24:05.410Z,4.86
2023-03-07T09:26:33.649Z,4.91
2023-03-07T09:29:02.025Z,4.87
2023-03-07T09:31:30.169Z,4.87
2023-03-07T09:33:58.707Z,4.82
2023-03-07T09:36:26.799Z,4.84
2023-03-07T09:38:58.236Z,4.83
2023-03-07T09:41:41.790Z,4.38
2023-03-07T09:44:19.381Z,4.84
2023-03-07T09:46:59.676Z,4.83
2023-03-07T09:49:33.956Z,4.81
2023-03-07T09:52:04.089Z,4.76
2023-03-07T09:54:41.187Z,4.78
2023-03-07T09:57:17.672Z,4.78
2023-03-07T09:59:48.738Z,4.74
2023-03-07T10:02:20.059Z,4.57
2023-03-07T10:04:53.847Z,4.68
2023-03-07T10:07:25.840Z,4.69
2023-03-07T10:09:59.824Z,4.70
2023-03-07T10:12:40.110Z,4.59
2023-03-07T10:15:20.806Z,4.69
2023-03-07T10:18:10.717Z,4.64
2023-03-07T10:20:46.971Z,4.57
2023-03-07T10:23:45.125Z,4.71
2023-03-07T10:26:21.980Z,4.57
2023-03-07T10:28:50.342Z,4.72
2023-03-07T10:31:23.884Z,4.75
2023-03-07T10:33:54.644Z,4.60
2023-03-07T10:36:24.453Z,4.37
2023-03-07T10:39:05.391Z,4.72
2023-03-07T10:41:34.936Z,3.99
2023-03-07T10:44:03.247Z,3.69
2023-03-07T10:46:36.625Z,3.88
2023-03-07T10:49:13.400Z,4.84
2023-03-07T10:51:52.911Z,4.71
2023-03-07T10:54:23.906Z,4.83
2023-03-07T10:57:07.368Z,4.88
2023-03-07T10:59:36.239Z,3.93
2023-03-07T11:02:21.560Z,4.96
2023-03-07T11:04:49.741Z,5.02
2023-03-07T11:07:28.741Z,4.82
2023-03-07T11:09:58.298Z,4.81
2023-03-07T11:12:29.338Z,4.97
2023-03-07T11:14:59.322Z,4.92
2023-03-07T11:17:30.625Z,3.96
2023-03-07T11:19:59.376Z,5.09
2023-03-07T11:22:29.801Z,5.08
2023-03-07T11:25:05.501Z,5.10
2023-03-07T11:27:39.158Z,4.96
2023-03-07T11:30:19.029Z,5.08
2023-03-07T11:32:58.676Z,5.13
2023-03-07T11:35:41.932Z,5.06
2023-03-07T11:38:16.731Z,4.98
2023-03-07T11:41:01.343Z,5.10
2023-03-07T11:43:51.775Z,5.03
2023-03-07T11:46:28.308Z,4.93
2023-03-07T11:49:09.148Z,4.91
2023-03-07T11:51:51.373Z,4.95
2023-03-07T11:54:29.304Z,4.91
2023-03-07T11:57:05.541Z,4.88
2023-03-07T11:59:55.216Z,4.96
2023-03-07T12:02:44.862Z,4.92
2023-03-07T12:05:26.479Z,4.72
2023-03-07T12:08:17.229Z,4.94
2023-03-07T12:10:57.103Z,5.06
2023-03-07T12:13:38.887Z,4.39
2023-03-07T12:16:20.811Z,5.04
2023-03-07T12:19:11.796Z,5.10
2023-03-07T12:22:00.123Z,5.07
2023-03-07T12:24:32.560Z,5.14
2023-03-07T12:27:04.866Z,5.18
2023-03-07T12:29:38.986Z,5.21
2023-03-07T12:32:13.451Z,5.14
2023-03-07T12:34:46.939Z,5.29
2023-03-07T12:37:19.617Z,5.21
2023-03-07T12:39:53.373Z,5.16
2023-03-07T12:42:32.535Z,5.09
2023-03-07T12:45:06.325Z,5.11
2023-03-07T12:47:49.148Z,5.11
2023-03-07T12:50:25.031Z,5.14
2023-03-07T12:52:59.527Z,5.14
2023-03-07T12:55:32.103Z,5.14
2023-03-07T12:58:07.666Z,5.15
2023-03-07T13:00:42.300Z,3.67
2023-03-07T13:03:19.932Z,5.20
2023-03-07T13:05:49.769Z,4.98
2023-03-07T13:08:23.991Z,5.16
2023-03-07T13:10:52.274Z,5.14
2023-03-07T13:13:55.712Z,5.18
2023-03-07T13:16:36.329Z,5.04
2023-03-07T13:19:42.939Z,5.04
2023-03-07T13:22:48.081Z,5.00
2023-03-07T13:25:44.961Z,4.94
2023-03-07T13:28:35.929Z,5.04
2023-03-07T13:31:36.739Z,5.15
2023-03-07T13:34:41.529Z,5.09
2023-03-07T13:37:50.233Z,5.15
2023-03-07T13:40:50.266Z,4.20
2023-03-07T13:43:57.893Z,4.91
2023-03-07T13:46:45.843Z,4.79
2023-03-07T13:49:47.479Z,4.67
2023-03-07T13:52:32.940Z,4.18
2023-03-07T13:55:03.714Z,4.67
2023-03-07T13:57:41.865Z,4.27
2023-03-07T14:00:39.551Z,4.64
2023-03-07T14:03:37.165Z,4.70
2023-03-07T14:06:13.973Z,4.65
2023-03-07T14:08:44.960Z,4.32
2023-03-07T14:11:23.243Z,4.34
2023-03-07T14:14:15.778Z,4.71
2023-03-07T14:16:59.950Z,4.81
2023-03-07T14:19:47.796Z,4.83
2023-03-07T14:22:30.793Z,4.75
2023-03-07T14:25:16.983Z,4.93
2023-03-07T14:27:54.188Z,4.99
2023-03-07T14:30:23.750Z,4.59
2023-03-07T14:32:53.051Z,4.71
2023-03-07T14:35:41.675Z,4.94
2023-03-07T14:38:20.485Z,4.52
2023-03-07T14:41:16.961Z,4.94
2023-03-07T14:43:56.827Z,4.86
2023-03-07T14:46:35.353Z,4.90
2023-03-07T14:49:15.253Z,5.04
2023-03-07T14:51:45.519Z,4.93
2023-03-07T14:54:19.906Z,4.60
2023-03-07T14:56:51.349Z,4.98
2023-03-07T14:59:28.628Z,4.96
2023-03-07T15:01:58.346Z,4.81
2023-03-07T15:04:28.565Z,4.38
2023-03-07T15:06:58.420Z,4.85
2023-03-07T15:09:29.770Z,4.79
2023-03-07T15:12:03.898Z,4.76
2023-03-07T15:14:40.005Z,4.73
2023-03-07T15:17:16.619Z,4.56
2023-03-07T15:19:48.476Z,3.59
2023-03-07T15:22:21.010Z,4.55
2023-03-07T15:24:51.927Z,4.71
2023-03-07T15:27:26.057Z,4.50
2023-03-07T15:29:55.113Z,4.55
2023-03-07T15:32:37.382Z,4.66
2023-03-07T15:35:15.986Z,4.59
2023-03-07T15:37:56.108Z,4.51
2023-03-07T15:40:31.692Z,4.59
2023-03-07T15:43:16.684Z,4.44
2023-03-07T15:45:47.104Z,4.22
2023-03-07T15:48:25.636Z,4.51
2023-03-07T15:50:54.561Z,4.52
2023-03-07T15:53:28.588Z,4.46
2023-03-07T15:56:00.374Z,4.59
2023-03-07T15:58:30.116Z,4.64
2023-03-07T16:01:19.998Z,4.55
2023-03-07T16:03:53.628Z,4.66
2023-03-07T16:06:41.987Z,4.65
2023-03-07T16:09:14.148Z,4.33
2023-03-07T16:11:45.693Z,4.55
2023-03-07T16:14:23.249Z,4.53
2023-03-07T16:16:51.720Z,4.55
2023-03-07T16:19:19.965Z,3.64
2023-03-07T16:21:48.417Z,4.67
2023-03-07T16:24:16.906Z,4.67
2023-03-07T16:26:48.148Z,4.66
2023-03-07T16:29:18.161Z,4.44
2023-03-07T16:31:46.756Z,4.60
2023-03-07T16:34:17.974Z,4.59
2023-03-07T16:36:47.431Z,4.54
2023-03-07T16:39:16.306Z,4.63
2023-03-07T16:41:48.496Z,4.58
2023-03-07T16:44:18.001Z,4.42
2023-03-07T16:46:52.280Z,4.64
2023-03-07T16:49:21.674Z,4.67
2023-03-07T16:52:04.741Z,4.66
2023-03-07T16:54:33.795Z,4.40
2023-03-07T16:57:04.512Z,4.72
2023-03-07T16:59:35.808Z,4.67
2023-03-07T17:02:12.853Z,4.59
2023-03-07T17:04:42.741Z,4.51
2023-03-07T17:07:18.020Z,4.42
2023-03-07T17:09:46.491Z,4.46
2023-03-07T17:12:16.853Z,4.45
2023-03-07T17:14:45.669Z,4.46
2023-03-07T17:17:19.917Z,4.44
2023-03-07T17:19:48.164Z,4.42
2023-03-07T17:22:17.460Z,4.42
2023-03-07T17:24:46.492Z,4.32
2023-03-07T17:27:16.185Z,3.87
2023-03-07T17:29:47.720Z,3.97
2023-03-07T17:32:15.911Z,4.50
2023-03-07T17:34:46.292Z,4.39
2023-03-07T17:37:14.540Z,4.38
2023-03-07T17:39:43.556Z,4.53
2023-03-07T17:42:11.787Z,4.39
2023-03-07T17:44:42.569Z,4.50
2023-03-07T17:47:10.857Z,3.97
2023-03-07T17:49:39.897Z,4.41
2023-03-07T17:52:08.442Z,4.51
2023-03-07T17:54:36.742Z,4.63
2023-03-07T17:57:05.165Z,4.60
2023-03-07T17:59:33.840Z,4.38
2023-03-07T18:02:03.610Z,4.60
2023-03-07T18:04:31.942Z,4.69
2023-03-07T18:07:00.346Z,3.75
2023-03-07T18:09:28.723Z,4.54
2023-03-07T18:11:57.366Z,4.56
2023-03-07T18:14:25.764Z,4.53
2023-03-07T18:16:54.140Z,4.56
2023-03-07T18:19:27.501Z,4.49
2023-03-07T18:21:56.122Z,4.58
2023-03-07T18:24:27.446Z,4.60
2023-03-07T18:26:57.015Z,4.57
2023-03-07T18:29:26.106Z,4.59
2023-03-07T18:31:54.654Z,4.52
2023-03-07T18:34:25.135Z,4.54
2023-03-07T18:36:54.414Z,4.63
2023-03-07T18:39:23.407Z,4.56
2023-03-07T18:41:52.182Z,4.54
2023-03-07T18:44:20.349Z,4.58
2023-03-07T18:46:48.784Z,4.57
2023-03-07T18:49:17.905Z,4.62
2023-03-07T18:51:48.539Z,4.50
2023-03-07T18:54:16.928Z,4.59
2023-03-07T18:56:47.009Z,4.59
2023-03-07T18:59:17.441Z,4.76
2023-03-07T19:01:46.004Z,4.41
2023-03-07T19:04:14.224Z,4.75
2023-03-07T19:06:45.250Z,4.68
2023-03-07T19:09:28.138Z,4.73
2023-03-07T19:11:56.474Z,4.76
2023-03-07T19:14:24.816Z,4.67
2023-03-07T19:16:53.170Z,4.56
2023-03-07T19:19:21.460Z,4.56
2023-03-07T19:21:49.635Z,4.45
2023-03-07T19:24:19.439Z,4.56
2023-03-07T19:26:47.707Z,4.57
2023-03-07T19:29:16.439Z,4.55
2023-03-07T19:31:45.129Z,4.56
2023-03-07T19:34:13.788Z,4.63
2023-03-07T19:36:42.744Z,4.54
2023-03-07T19:39:15.231Z,4.74
2023-03-07T19:41:47.978Z,4.69
2023-03-07T19:44:16.921Z,4.74
2023-03-07T19:46:47.335Z,4.42
2023-03-07T19:49:18.456Z,4.69
2023-03-07T19:51:46.692Z,4.62
2023-03-07T19:54:15.728Z,4.54
2023-03-07T19:56:45.817Z,3.86
2023-03-07T19:59:14.435Z,4.56
2023-03-07T20:01:42.654Z,4.52
2023-03-07T20:04:11.077Z,4.74
2023-03-07T20:06:42.296Z,4.76
2023-03-07T20:09:14.942Z,4.58
2023-03-07T20:11:44.822Z,4.19
2023-03-07T20:14:13.793Z,4.42
2023-03-07T20:16:42.892Z,4.20
2023-03-07T20:19:11.728Z,4.56
2023-03-07T20:21:42.539Z,4.57
2023-03-07T20:24:10.881Z,4.42
2023-03-07T20:26:40.836Z,4.39
2023-03-07T20:29:11.102Z,4.35
2023-03-07T20:31:40.290Z,4.25
2023-03-07T20:34:08.734Z,3.79
2023-03-07T20:36:38.745Z,4.36
2023-03-07T20:39:08.992Z,4.43
2023-03-07T20:41:37.443Z,4.41
2023-03-07T20:44:07.261Z,4.40
2023-03-07T20:46:38.667Z,4.20
2023-03-07T20:49:07.371Z,4.06
2023-03-07T20:51:37.990Z,3.99
2023-03-07T20:54:08.027Z,3.94
2023-03-07T20:56:37.844Z,3.92
2023-03-07T20:59:06.836Z,3.76
2023-03-07T21:01:37.252Z,3.87
2023-03-07T21:04:09.388Z,3.75
2023-03-07T21:06:38.599Z,3.73
2023-03-07T21:09:10.302Z,3.92
2023-03-07T21:11:41.382Z,3.77
2023-03-07T21:14:09.982Z,3.64
2023-03-07T21:16:39.800Z,3.41
2023-03-07T21:19:09.328Z,3.67
2023-03-07T21:21:37.963Z,3.74
2023-03-07T21:24:07.574Z,3.74
2023-03-07T21:26:37.524Z,3.48
2023-03-07T21:29:08.420Z,3.69
2023-03-07T21:31:37.223Z,3.71
2023-03-07T21:34:09.023Z,3.66
2023-03-07T21:36:37.632Z,3.54
2023-03-07T21:39:08.132Z,3.50
2023-03-07T21:41:36.480Z,3.33
2023-03-07T21:44:04.942Z,3.28
2023-03-07T21:46:33.165Z,3.40
2023-03-07T21:49:02.842Z,3.27
2023-03-07T21:51:32.769Z,3.33
2023-03-07T21:54:01.080Z,3.28
2023-03-07T21:56:29.329Z,3.24
2023-03-07T21:58:57.656Z,3.02
2023-03-07T22:01:28.808Z,3.23
2023-03-07T22:03:59.578Z,3.24
2023-03-07T22:06:30.061Z,3.19
2023-03-07T22:08:59.898Z,3.12
2023-03-07T22:11:28.227Z,3.09
2023-03-07T22:13:56.753Z,3.03
2023-03-07T22:16:25.055Z,3.03
2023-03-07T22:18:54.510Z,3.10
2023-03-07T22:21:25.185Z,2.75
2023-03-07T22:23:57.908Z,3.06
2023-03-07T22:26:29.038Z,3.04
2023-03-07T22:28:57.267Z,2.95
2023-03-07T22:31:26.024Z,2.76
2023-03-07T22:33:54.537Z,2.66
2023-03-07T22:36:22.916Z,2.96
2023-03-07T22:38:55.298Z,2.78
2023-03-07T22:41:24.348Z,3.03
2023-03-07T22:43:54.137Z,2.96
2023-03-07T22:46:22.883Z,2.93
2023-03-07T22:48:53.545Z,2.92
2023-03-07T22:51:22.075Z,2.85
2023-03-07T22:53:50.408Z,2.78
2023-03-07T22:56:26.636Z,2.06
2023-03-07T22:58:56.862Z,2.23
2023-03-07T23:01:26.921Z,2.82
2023-03-07T23:03:56.395Z,2.85
2023-03-07T23:06:27.199Z,2.83
2023-03-07T23:08:55.577Z,2.90
2023-03-07T23:11:25.850Z,2.79
2023-03-07T23:13:56.055Z,2.17
2023-03-07T23:16:26.069Z,2.92
2023-03-07T23:18:57.572Z,2.94
2023-03-07T23:21:27.988Z,2.91
2023-03-07T23:23:57.081Z,2.89
2023-03-07T23:26:27.689Z,2.87
2023-03-07T23:28:57.868Z,3.10
2023-03-07T23:31:27.590Z,3.09
2023-03-07T23:33:57.293Z,2.98
2023-03-07T23:36:25.899Z,3.05
2023-03-07T23:38:54.537Z,3.17
2023-03-07T23:41:23.024Z,3.16
2023-03-07T23:43:52.650Z,3.07
2023-03-07T23:46:22.618Z,3.08
2023-03-07T23:48:50.930Z,3.05
2023-03-07T23:51:19.366Z,2.96
2023-03-07T23:53:47.660Z,2.93
2023-03-07T23:56:15.874Z,2.85
2023-03-07T23:58:44.315Z,2.85
